Burnstad, North Dakota
Current Conditions -  °F | °C
As of 3:35 PM on Wednesday 26 Nov 2014 (Local Time) from K7L2 Reporting Station
Overcast Overcast  
Wind Chill: -4°   Ceiling: 7000
Heat Index:   Visibility: 10mi
Dew Point:   Wind: 8mph
Humidity: 85%   Direction: 360°N
Pressure: 30.39"   Gusts: NA
Location:  46.2334°N, 99.6522°W
Report Text: K7L2 262135Z AUTO 36007KT 10SM OVC070 M13/M15 A3039 RMK AO2
Loading
Personal Weather Stations






























Interactive Weather Map New forecast layout! Learn more

10-Day Weather Forecast

Advertisements
Track Severe Weather on mobile